Time;durP1;ratioP1;P1;durP2;ratioP2;P2;SDS_P1;SDS_P2;PMS_P1;PMS_P2;Temp;Humidity;BMP_temperature;BMP_pressure;BME280_temperature;BME280_humidity;BME280_pressure;Samples;Min_cycle;Max_cycle;Signal;HPM_P1;HPM_P2
2023/06/19 00:00:20;;;;;;;;;;;18.60;82.10;;;-151.14;100.00;62537.16;4994397;28;19922;-90
2023/06/19 00:02:48;;;;;;;;;;;18.60;82.20;;;-151.14;100.00;62537.16;4993612;28;19922;-89
2023/06/19 00:05:17;;;;;;;;;;;18.60;82.00;;;17.78;100.00;62537.16;4977808;28;20213;-89
2023/06/19 00:07:45;;;;;;;;;;;18.60;82.00;;;-151.14;100.00;62537.16;4994273;28;20117;-89
2023/06/19 00:10:12;;;;;;;;;;;18.60;81.90;;;-151.14;100.00;62537.16;4978007;28;19921;-91
2023/06/19 00:12:41;;;;;;;;;;;18.60;82.00;;;17.77;100.00;62537.16;4977198;28;19922;-91
2023/06/19 00:15:10;;;;;;;;;;;18.60;81.90;;;-151.14;100.00;62537.16;4994432;28;19922;-91
2023/06/19 00:17:39;;;;;;;;;;;18.60;81.80;;;-151.14;100.00;62537.16;4977759;28;19922;-91
2023/06/19 00:20:08;;;;;;;;;;;18.60;82.00;;;-151.14;100.00;62537.16;4994030;28;19925;-90
2023/06/19 00:22:36;;;;;;;;;;;18.60;81.80;;;-151.14;100.00;62537.16;4993221;28;20099;-91
2023/06/19 00:25:05;;;;;;;;;;;18.60;81.60;;;-151.14;100.00;62537.16;4977585;28;19922;-91
2023/06/19 00:27:33;;;;;;;;;;;18.60;81.60;;;-151.14;100.00;62537.16;4977685;28;19921;-89
2023/06/19 00:30:03;;;;;;;;;;;18.60;81.50;;;-151.14;100.00;62537.16;4977614;28;19922;-90
2023/06/19 00:32:45;;;;;;;;;;;18.50;81.10;;;-151.14;100.00;62537.16;4977348;28;19922;-91
2023/06/19 00:35:15;;;;;;;;;;;18.50;81.10;;;-151.14;100.00;62537.16;4993410;28;19922;-91
2023/06/19 00:37:44;;;;;;;;;;;18.50;81.20;;;-151.14;100.00;62537.16;4977531;28;19928;-91
2023/06/19 00:40:20;;;;;;;;;;;18.50;81.20;;;-151.14;100.00;62537.16;4977474;28;19929;-90
2023/06/19 00:42:49;;;;;;;;;;;18.50;81.30;;;-151.14;100.00;62537.16;4976706;28;19922;-91
2023/06/19 00:45:17;;;;;;;;;;;18.50;81.40;;;-151.14;100.00;62537.16;4993535;28;19921;-91
2023/06/19 00:47:45;;;;;;;;;;;18.50;81.30;;;187.61;100.00;62537.16;4977451;28;19922;-92
2023/06/19 00:50:14;;;;;;;;;;;18.50;81.20;;;-151.14;100.00;62537.16;4977333;28;19922;-91
2023/06/19 00:52:42;;;;;;;;;;;18.50;81.10;;;-151.14;100.00;62537.16;4976812;28;20102;-90
2023/06/19 00:55:10;;;;;;;;;;;18.50;81.00;;;-151.14;100.00;62537.16;4977093;28;20118;-91
2023/06/19 00:57:39;;;;;;;;;;;18.50;80.90;;;-151.14;100.00;62537.16;4993251;28;19922;-91
2023/06/19 01:00:08;;;;;;;;;;;18.50;80.90;;;-151.14;100.00;62537.16;4977237;28;19922;-92
2023/06/19 01:02:36;;;;;;;;;;;18.50;80.90;;;17.63;100.00;62537.16;4976536;28;19929;-89
2023/06/19 01:05:04;;;;;;;;;;;18.50;80.90;;;-151.14;100.00;62537.16;4977156;28;19922;-91
2023/06/19 01:07:40;;;;;;;;;;;18.50;80.80;;;-151.14;100.00;62537.16;4992515;28;19921;-90
2023/06/19 01:10:09;;;;;;;;;;;18.50;80.80;;;-151.14;100.00;62537.16;4977155;28;19932;-91
2023/06/19 01:12:39;;;;;;;;;;;18.50;80.70;;;-151.14;100.00;62537.16;4976411;28;20226;-92
2023/06/19 01:15:08;;;;;;;;;;;18.50;80.60;;;-151.14;100.00;62537.16;4976894;28;20117;-90
2023/06/19 01:17:36;;;;;;;;;;;18.50;80.50;;;-151.14;100.00;62537.16;4993174;28;19951;-91
2023/06/19 01:20:10;;;;;;;;;;;18.40;80.20;;;-151.14;100.00;62537.16;4976850;28;20214;-90
2023/06/19 01:22:43;;;;;;;;;;;18.40;80.10;;;17.59;100.00;62537.16;4992471;28;19922;-90
2023/06/19 01:25:13;;;;;;;;;;;18.40;80.20;;;17.59;100.00;62537.16;4992923;28;19922;-90
2023/06/19 01:27:42;;;;;;;;;;;18.40;80.20;;;-151.14;100.00;62537.16;4976860;28;19922;-91
2023/06/19 01:30:10;;;;;;;;;;;18.40;80.20;;;-151.14;100.00;62537.16;4976748;28;20125;-91
2023/06/19 01:32:42;;;;;;;;;;;18.40;80.10;;;-151.14;100.00;62537.16;4992423;28;19921;-91
2023/06/19 01:35:10;;;;;;;;;;;18.40;80.00;;;17.56;100.00;106994.31;4993063;28;20194;-90
2023/06/19 01:37:39;;;;;;;;;;;18.40;80.00;;;-151.14;100.00;62537.16;4992869;28;20197;-90
2023/06/19 01:40:10;;;;;;;;;;;18.40;80.00;;;-151.14;100.00;62537.16;4992975;28;19928;-90
2023/06/19 01:42:39;;;;;;;;;;;18.40;80.00;;;-151.14;100.00;62537.16;4976194;28;19921;-91
2023/06/19 01:45:08;;;;;;;;;;;18.40;79.80;;;-151.14;100.00;62537.16;4992758;28;19922;-88
2023/06/19 01:47:37;;;;;;;;;;;18.40;79.80;;;-151.14;100.00;62537.16;4992701;28;19922;-91
2023/06/19 01:50:06;;;;;;;;;;;18.30;79.80;;;-151.14;100.00;62537.16;4992758;28;19921;-90
2023/06/19 01:52:34;;;;;;;;;;;18.30;79.80;;;-151.14;100.00;62537.16;4992143;28;20206;-90
2023/06/19 01:55:03;;;;;;;;;;;18.30;79.80;;;17.50;100.00;62537.16;4992450;28;19928;-90
2023/06/19 01:57:33;;;;;;;;;;;18.30;79.80;;;-151.14;100.00;62537.16;4992707;28;19922;-90
2023/06/19 02:00:01;;;;;;;;;;;18.30;79.80;;;60.43;100.00;62537.16;4976361;28;19944;-91
2023/06/19 02:02:29;;;;;;;;;;;18.30;79.80;;;-151.14;100.00;62537.16;4991989;28;20112;-90
2023/06/19 02:04:57;;;;;;;;;;;18.30;79.70;;;-151.14;100.00;62537.16;4976341;28;19921;-90
2023/06/19 02:07:25;;;;;;;;;;;18.30;79.60;;;-151.14;100.00;62537.16;4992390;28;19941;-89
2023/06/19 02:09:54;;;;;;;;;;;18.30;79.60;;;17.46;100.00;62537.16;4976126;28;19929;-90
2023/06/19 02:12:24;;;;;;;;;;;18.30;79.50;;;-151.14;100.00;62537.16;4975556;28;19922;-89
2023/06/19 02:14:53;;;;;;;;;;;18.30;79.30;;;-151.14;100.00;62537.16;4993179;28;19922;-89
2023/06/19 02:17:21;;;;;;;;;;;18.30;79.40;;;-151.14;100.00;62537.16;4992405;28;19922;-89
2023/06/19 02:19:49;;;;;;;;;;;18.30;79.30;;;-151.14;100.00;62537.16;4992102;28;19922;-89
2023/06/19 02:22:19;;;;;;;;;;;18.30;79.30;;;-151.14;100.00;62537.16;4975590;28;19922;-89
2023/06/19 02:24:48;;;;;;;;;;;18.30;79.30;;;-151.14;100.00;62537.16;4975780;28;19922;-89
2023/06/19 02:27:16;;;;;;;;;;;18.30;79.20;;;-151.14;100.00;62537.16;4992270;28;19928;-90
2023/06/19 02:29:44;;;;;;;;;;;18.30;79.10;;;-151.14;100.00;62537.16;4976030;28;19928;-88
2023/06/19 02:32:13;;;;;;;;;;;18.30;78.80;;;-151.14;100.00;62537.16;4975356;28;20213;-89
2023/06/19 02:34:41;;;;;;;;;;;18.30;78.70;;;-151.14;100.00;62537.16;4991904;28;19944;-89
2023/06/19 02:37:09;;;;;;;;;;;18.20;78.60;;;-151.14;100.00;62537.16;4975816;28;19921;-89
2023/06/19 02:39:39;;;;;;;;;;;18.20;78.60;;;-151.14;100.00;62537.16;4975522;28;19922;-89
2023/06/19 02:42:08;;;;;;;;;;;18.20;78.60;;;-151.14;100.00;62537.16;4991593;28;19928;-89
2023/06/19 02:44:36;;;;;;;;;;;18.20;79.50;;;-151.14;100.00;62537.16;4991762;28;20117;-89
2023/06/19 02:47:04;;;;;;;;;;;18.20;78.70;;;-151.14;100.00;62537.16;4991222;28;20252;-89
2023/06/19 02:49:33;;;;;;;;;;;18.20;78.50;;;-151.14;100.00;62537.16;4991298;28;19922;-89
2023/06/19 02:52:01;;;;;;;;;;;18.20;78.40;;;-151.14;100.00;62537.16;4991479;28;19921;-89
2023/06/19 02:54:29;;;;;;;;;;;18.20;78.10;;;-151.14;100.00;62537.16;4975565;28;19922;-88
2023/06/19 02:56:57;;;;;;;;;;;18.20;78.00;;;17.34;100.00;62537.16;4975739;28;19928;-89
2023/06/19 02:59:25;;;;;;;;;;;18.20;78.20;;;-151.14;100.00;62537.16;4975565;28;20094;-90
2023/06/19 03:01:53;;;;;;;;;;;18.20;78.10;;;-151.14;100.00;62537.16;5007554;28;19922;-89
2023/06/19 03:04:22;;;;;;;;;;;18.20;78.30;;;-151.14;100.00;62537.16;4975260;28;19928;-89
2023/06/19 03:06:51;;;;;;;;;;;18.20;78.40;;;-151.14;100.00;62537.16;4975516;28;19928;-90
2023/06/19 03:09:19;;;;;;;;;;;18.20;78.50;;;-151.14;100.00;62537.16;4975409;28;20110;-89
2023/06/19 03:11:48;;;;;;;;;;;18.20;78.50;;;17.35;100.00;62537.16;4974950;28;19922;-90
2023/06/19 03:14:16;;;;;;;;;;;18.20;78.30;;;-151.14;100.00;62537.16;4991461;28;19928;-89
2023/06/19 03:16:44;;;;;;;;;;;18.20;78.20;;;-151.14;100.00;62537.16;4975433;28;20218;-89
2023/06/19 03:19:12;;;;;;;;;;;18.20;78.20;;;17.31;100.00;62537.16;4975323;28;19921;-89
2023/06/19 03:21:40;;;;;;;;;;;18.20;78.20;;;17.31;100.00;83499.94;4974774;28;19922;-89
2023/06/19 03:24:11;;;;;;;;;;;18.20;78.10;;;-151.14;100.00;62537.16;4991308;28;19926;-88
2023/06/19 03:26:39;;;;;;;;;;;18.20;78.00;;;-151.14;100.00;62537.16;4975121;28;19930;-89
2023/06/19 03:29:08;;;;;;;;;;;18.20;78.10;;;18.10;100.00;62537.16;4990762;28;19932;-89
2023/06/19 03:31:58;;;;;;;;;;;18.20;78.10;;;-151.14;100.00;62537.16;4990646;28;20120;-89
2023/06/19 03:34:31;;;;;;;;;;;18.10;78.00;;;-151.14;100.00;62537.16;4974904;28;19921;-89
2023/06/19 03:37:00;;;;;;;;;;;18.10;78.10;;;-151.14;100.00;62537.16;4974659;28;20210;-89
2023/06/19 03:39:30;;;;;;;;;;;18.10;78.00;;;-151.14;100.00;62537.16;4975158;28;19928;-89
2023/06/19 03:42:05;;;;;;;;;;;18.10;78.10;;;-151.14;100.00;62537.16;4974404;28;19929;-89
2023/06/19 03:44:33;;;;;;;;;;;18.20;78.10;;;-151.14;100.00;62537.16;4974697;28;20225;-90
2023/06/19 03:47:02;;;;;;;;;;;18.20;78.30;;;-151.14;100.00;62537.16;4974827;28;19928;-89
2023/06/19 03:49:30;;;;;;;;;;;18.20;78.20;;;-151.14;100.00;62537.16;4974887;28;20232;-89
2023/06/19 03:51:58;;;;;;;;;;;18.10;78.20;;;-151.14;100.00;62537.16;4990604;28;19922;-90
2023/06/19 03:54:27;;;;;;;;;;;18.10;78.20;;;-151.14;100.00;62537.16;4991056;28;19930;-88
2023/06/19 03:56:56;;;;;;;;;;;18.20;78.20;;;-151.14;100.00;62537.16;4990941;28;19922;-89
2023/06/19 03:59:24;;;;;;;;;;;18.10;78.20;;;-151.14;100.00;62537.16;4974824;28;19922;-89
2023/06/19 04:01:52;;;;;;;;;;;18.20;78.20;;;-151.14;100.00;62537.16;4990572;28;20231;-89
2023/06/19 04:04:20;;;;;;;;;;;18.20;78.20;;;-151.14;100.00;62537.16;4974590;28;20217;-88
2023/06/19 04:06:48;;;;;;;;;;;18.20;78.30;;;-151.14;100.00;62537.16;4990670;28;19928;-89
2023/06/19 04:09:16;;;;;;;;;;;18.20;78.50;;;-151.14;100.00;62537.16;4974576;28;19922;-89
2023/06/19 04:11:44;;;;;;;;;;;18.20;78.40;;;18.08;100.00;62537.16;4990396;28;19921;-89
2023/06/19 04:14:15;;;;;;;;;;;18.20;78.50;;;-151.14;100.00;62537.16;4974439;28;19934;-90
2023/06/19 04:16:43;;;;;;;;;;;18.20;78.40;;;-151.14;100.00;62537.16;4974542;28;19993;-90
2023/06/19 04:19:11;;;;;;;;;;;18.20;78.30;;;17.37;100.00;62537.16;4990772;28;19922;-90
2023/06/19 04:21:39;;;;;;;;;;;18.20;78.40;;;17.37;100.00;83508.44;4973938;28;19922;-89
2023/06/19 04:24:08;;;;;;;;;;;18.20;78.40;;;-151.14;100.00;62537.16;4990423;28;20206;-90
2023/06/19 04:26:37;;;;;;;;;;;18.30;78.50;;;17.42;100.00;62537.16;4990476;28;19930;-90
2023/06/19 04:29:06;;;;;;;;;;;18.30;78.40;;;-151.14;100.00;62537.16;4974359;28;19944;-90
2023/06/19 04:31:40;;;;;;;;;;;18.30;78.30;;;-151.14;100.00;62537.16;4990083;28;19921;-90
2023/06/19 04:34:08;;;;;;;;;;;18.30;78.40;;;-151.14;100.00;62537.16;4990249;28;19922;-90
2023/06/19 04:36:37;;;;;;;;;;;18.30;78.20;;;-151.14;100.00;62537.16;4974197;28;19922;-90
2023/06/19 04:39:05;;;;;;;;;;;18.30;78.40;;;-151.14;100.00;62537.16;4974526;28;19944;-90
2023/06/19 04:41:33;;;;;;;;;;;18.30;78.40;;;-151.14;100.00;62537.16;4974821;28;19922;-90
2023/06/19 04:44:03;;;;;;;;;;;18.30;78.50;;;-151.14;100.00;62537.16;4993636;28;19932;-90
2023/06/19 04:46:31;;;;;;;;;;;18.30;78.60;;;-151.14;100.00;62537.16;4977288;28;19921;-90
2023/06/19 04:49:00;;;;;;;;;;;18.30;78.50;;;-151.14;100.00;62537.16;4993865;28;19928;-90
2023/06/19 04:51:29;;;;;;;;;;;18.30;78.70;;;-151.14;100.00;62537.16;4976759;28;19928;-90
2023/06/19 04:53:57;;;;;;;;;;;18.30;78.90;;;-151.14;100.00;62537.16;4977427;28;19922;-90
2023/06/19 04:56:25;;;;;;;;;;;18.30;78.80;;;17.53;100.00;62537.16;4977408;28;19922;-90
2023/06/19 04:58:55;;;;;;;;;;;18.30;78.70;;;;;;4977426;28;20222;-90
2023/06/19 05:01:27;;;;;;;;;;;18.40;79.00;;;-151.14;100.00;62537.16;4976771;28;19921;-90
2023/06/19 05:03:55;;;;;;;;;;;18.40;78.90;;;-151.14;100.00;62537.16;4977363;28;19921;-90
2023/06/19 05:06:25;;;;;;;;;;;18.40;79.40;;;-151.14;100.00;62537.16;4977146;28;19922;-91
2023/06/19 05:08:53;;;;;;;;;;;18.50;79.30;;;-151.14;100.00;62537.16;4993314;28;19929;-90
2023/06/19 05:11:21;;;;;;;;;;;18.50;79.30;;;-151.14;100.00;62537.16;4976594;28;19936;-90
2023/06/19 05:13:49;;;;;;;;;;;18.50;79.20;;;-151.14;100.00;62537.16;4977175;28;19928;-89
2023/06/19 05:16:19;;;;;;;;;;;18.50;79.60;;;-151.14;100.00;62537.16;4993157;28;19929;-90
2023/06/19 05:18:47;;;;;;;;;;;18.60;79.50;;;-151.14;100.00;62537.16;4993329;28;19922;-90
2023/06/19 05:21:15;;;;;;;;;;;18.60;79.30;;;-151.14;100.00;62537.16;4976453;28;19922;-90
2023/06/19 05:23:47;;;;;;;;;;;18.60;79.10;;;-151.14;100.00;62537.16;4977044;28;19928;-90
2023/06/19 05:26:15;;;;;;;;;;;18.70;78.90;;;-151.14;100.00;62537.16;4993069;28;19921;-90
2023/06/19 05:28:43;;;;;;;;;;;18.70;78.90;;;18.08;100.00;62537.16;4993185;28;19929;-90
2023/06/19 05:31:11;;;;;;;;;;;18.70;78.80;;;-151.14;100.00;62537.16;4992648;28;20126;-90
2023/06/19 05:33:39;;;;;;;;;;;18.80;78.80;;;-151.14;100.00;62537.16;4978531;28;20095;-90
2023/06/19 05:36:07;;;;;;;;;;;18.80;78.60;;;17.98;100.00;62537.16;4979994;28;20209;-91
2023/06/19 05:38:35;;;;;;;;;;;18.80;78.80;;;-151.14;100.00;62537.16;4996309;28;19921;-91
2023/06/19 05:41:04;;;;;;;;;;;18.80;78.80;;;-151.14;100.00;62537.16;4995912;28;19928;-90
2023/06/19 05:43:32;;;;;;;;;;;18.80;79.60;;;18.02;100.00;106994.31;4979687;28;19944;-90
2023/06/19 05:46:02;;;;;;;;;;;18.80;78.60;;;18.02;100.00;62537.16;4979864;28;19922;-91
2023/06/19 05:48:30;;;;;;;;;;;18.80;78.60;;;-151.14;100.00;62537.16;4979809;28;19943;-90
2023/06/19 05:50:58;;;;;;;;;;;18.80;78.40;;;-151.14;100.00;62537.16;4979869;28;19928;-91
2023/06/19 05:53:26;;;;;;;;;;;18.90;78.40;;;;;;4978998;28;19928;-90
2023/06/19 05:55:54;;;;;;;;;;;18.90;78.40;;;-151.14;100.00;62537.16;4979833;28;19921;-90
2023/06/19 05:58:25;;;;;;;;;;;18.90;78.40;;;18.08;100.00;62537.16;4979626;28;19928;-91
2023/06/19 06:00:57;;;;;;;;;;;18.90;78.50;;;18.14;100.00;62537.16;4979560;28;19927;-89
2023/06/19 06:03:25;;;;;;;;;;;19.00;78.40;;;-151.14;100.00;62537.16;4995327;28;19921;-89
2023/06/19 06:05:53;;;;;;;;;;;19.00;78.30;;;-151.14;100.00;62537.16;4979359;28;19921;-90
2023/06/19 06:08:21;;;;;;;;;;;19.00;78.10;;;-151.14;100.00;62537.16;5011967;28;20205;-89
2023/06/19 06:10:49;;;;;;;;;;;19.00;78.00;;;-151.14;100.00;62537.16;4995677;28;19922;-90
2023/06/19 06:13:17;;;;;;;;;;;19.10;78.10;;;-151.14;100.00;62537.16;4978765;28;19922;-89
2023/06/19 06:15:47;;;;;;;;;;;19.10;78.00;;;-151.14;100.00;62537.16;4997278;28;20235;-90
2023/06/19 06:18:15;;;;;;;;;;;19.10;78.00;;;-151.14;100.00;62537.16;4975963;28;19921;-90
2023/06/19 06:20:43;;;;;;;;;;;19.20;77.80;;;18.38;100.00;62537.16;4992281;28;19928;-90
2023/06/19 06:23:10;;;;;;;;;;;19.20;77.80;;;-151.14;100.00;62537.16;4975361;28;19922;-90
2023/06/19 06:25:38;;;;;;;;;;;19.20;77.80;;;-151.14;100.00;62537.16;4960091;28;20113;-91
2023/06/19 06:28:07;;;;;;;;;;;19.30;77.80;;;18.49;100.00;62537.16;4959896;28;20213;-91
2023/06/19 06:30:35;;;;;;;;;;;19.30;77.80;;;-151.14;100.00;62537.16;4976104;28;19922;-90
2023/06/19 06:33:04;;;;;;;;;;;19.30;77.80;;;-151.14;100.00;62537.16;4975496;28;19922;-91
2023/06/19 06:35:32;;;;;;;;;;;19.30;77.80;;;18.55;100.00;62537.16;4991775;28;19922;-90
2023/06/19 06:38:00;;;;;;;;;;;19.30;77.90;;;-151.14;100.00;62537.16;4975773;28;20133;-90
2023/06/19 06:40:28;;;;;;;;;;;19.30;77.90;;;-151.14;100.00;62537.16;4959874;28;19929;-91
2023/06/19 06:42:56;;;;;;;;;;;19.40;77.70;;;39.25;100.00;62537.16;4958831;28;19928;-89
2023/06/19 06:45:24;;;;;;;;;;;19.40;77.90;;;-151.14;100.00;62537.16;4992823;28;19928;-91
2023/06/19 06:47:52;;;;;;;;;;;19.40;77.90;;;-151.14;100.00;62537.16;4992730;28;19928;-91
2023/06/19 06:50:21;;;;;;;;;;;19.50;78.00;;;-151.14;100.00;62537.16;4959814;28;19921;-91
2023/06/19 06:52:49;;;;;;;;;;;19.50;77.90;;;-151.14;100.00;62537.16;4974819;28;19928;-91
2023/06/19 06:55:18;;;;;;;;;;;19.50;77.40;;;39.25;100.00;62537.16;4959256;28;19928;-91
2023/06/19 06:57:46;;;;;;;;;;;19.50;77.30;;;18.08;100.00;62537.16;4975606;28;19928;-91
2023/06/19 07:00:15;;;;;;;;;;;19.60;77.60;;;-151.14;100.00;62537.16;4959373;28;19928;-90
2023/06/19 07:02:43;;;;;;;;;;;19.60;77.30;;;-151.14;100.00;62537.16;4974861;28;19922;-91
2023/06/19 07:05:11;;;;;;;;;;;19.60;77.30;;;-151.14;100.00;62537.16;4974665;28;19922;-90
2023/06/19 07:07:40;;;;;;;;;;;19.60;77.10;;;18.93;100.00;62537.16;4975234;28;19922;-91
2023/06/19 07:10:09;;;;;;;;;;;19.70;77.20;;;18.96;100.00;62537.16;4959436;28;19922;-91
2023/06/19 07:12:46;;;;;;;;;;;19.70;77.30;;;-151.14;100.00;62537.16;4958839;28;19928;-92
2023/06/19 07:15:14;;;;;;;;;;;19.70;77.40;;;18.08;100.00;62537.16;4975410;28;19922;-91
2023/06/19 07:17:42;;;;;;;;;;;19.70;77.60;;;-151.14;100.00;62537.16;4975805;28;20110;-91
2023/06/19 07:20:11;;;;;;;;;;;19.70;77.20;;;-151.14;100.00;62537.16;4992539;28;19942;-91
2023/06/19 07:22:40;;;;;;;;;;;19.80;77.20;;;-151.14;100.00;62537.16;4958558;28;19928;-92
2023/06/19 07:25:09;;;;;;;;;;;19.80;77.20;;;-151.14;100.00;62537.16;4975311;28;19929;-91
2023/06/19 07:27:37;;;;;;;;;;;19.70;77.20;;;-151.14;100.00;62537.16;4959046;28;20121;-90
2023/06/19 07:30:06;;;;;;;;;;;19.80;77.50;;;-151.14;100.00;62537.16;4959034;28;19922;-90
2023/06/19 07:32:34;;;;;;;;;;;19.80;77.40;;;-151.14;100.00;62537.16;4958415;28;19929;-91
2023/06/19 07:35:05;;;;;;;;;;;19.80;77.40;;;-151.14;100.00;62537.16;5017236;23;20207;-87
2023/06/19 07:37:33;;;;;;;;;;;19.80;77.10;;;18.12;100.00;62537.16;4994656;28;19944;-87
2023/06/19 07:40:03;;;;;;;;;;;19.80;77.30;;;28.66;100.00;62537.16;5011054;28;19928;-88
2023/06/19 07:42:31;;;;;;;;;;;19.70;77.20;;;39.25;100.00;62537.16;5010416;28;19921;-88
2023/06/19 07:44:59;;;;;;;;;;;19.70;77.20;;;-151.14;100.00;62537.16;5020031;28;19921;-88
2023/06/19 07:47:27;;;;;;;;;;;19.70;77.20;;;18.90;100.00;62537.16;5014013;28;20246;-89
2023/06/19 07:49:55;;;;;;;;;;;19.70;77.10;;;-151.14;100.00;62537.16;5014231;28;20097;-88
2023/06/19 07:52:23;;;;;;;;;;;19.70;77.30;;;-151.14;100.00;62537.16;5013463;28;19921;-88
2023/06/19 07:54:52;;;;;;;;;;;19.60;77.20;;;-151.14;100.00;62537.16;5014094;28;19927;-88
2023/06/19 07:57:22;;;;;;;;;;;19.60;77.30;;;39.25;100.00;62537.16;5031411;28;19928;-88
2023/06/19 07:59:50;;;;;;;;;;;19.60;77.60;;;-151.14;100.00;62537.16;5014086;28;19921;-88
2023/06/19 08:02:18;;;;;;;;;;;19.50;77.70;;;-151.14;100.00;62537.16;5013613;28;19921;-88
2023/06/19 08:04:46;;;;;;;;;;;19.60;78.00;;;20.72;100.00;62537.16;5013913;28;19928;-88
2023/06/19 08:07:14;;;;;;;;;;;19.50;77.80;;;28.66;100.00;62537.16;5030189;28;19921;-88
2023/06/19 08:09:42;;;;;;;;;;;19.50;78.00;;;-151.14;100.00;62537.16;5013962;28;19950;-89
2023/06/19 08:12:10;;;;;;;;;;;19.50;78.20;;;39.25;100.00;62537.16;5013461;28;19931;-88
2023/06/19 08:14:40;;;;;;;;;;;19.40;78.10;;;-151.14;100.00;62537.16;5013798;28;20120;-89
2023/06/19 08:17:08;;;;;;;;;;;19.40;78.30;;;-151.14;100.00;62537.16;5017212;28;19921;-89
2023/06/19 08:19:36;;;;;;;;;;;19.40;78.10;;;-151.14;100.00;62537.16;5017250;28;19928;-88
2023/06/19 08:22:04;;;;;;;;;;;19.50;78.30;;;60.43;100.00;62537.16;5016802;28;19927;-88
2023/06/19 08:24:32;;;;;;;;;;;19.40;78.10;;;-151.14;100.00;62537.16;5033646;28;19929;-88
2023/06/19 08:27:00;;;;;;;;;;;19.50;78.30;;;-151.14;100.00;62537.16;5033387;28;19927;-88
2023/06/19 08:29:28;;;;;;;;;;;19.40;78.10;;;-151.14;100.00;62537.16;5033547;28;19921;-88
2023/06/19 08:31:57;;;;;;;;;;;19.40;78.20;;;-151.14;100.00;62537.16;5016485;28;19922;-89
2023/06/19 08:34:25;;;;;;;;;;;19.40;78.20;;;-151.14;100.00;62537.16;5016951;28;19921;-89
2023/06/19 08:36:53;;;;;;;;;;;19.40;78.30;;;-151.14;100.00;62537.16;5017178;28;20209;-88
2023/06/19 08:39:22;;;;;;;;;;;19.40;78.40;;;-151.14;100.00;62537.16;5016911;28;19928;-88
2023/06/19 08:41:53;;;;;;;;;;;19.30;78.50;;;-151.14;100.00;62537.16;5016454;28;19921;-88
2023/06/19 08:44:21;;;;;;;;;;;19.30;78.60;;;-151.14;100.00;62537.16;5033523;28;19928;-89
2023/06/19 08:46:49;;;;;;;;;;;19.30;78.80;;;-151.14;100.00;62537.16;5049781;28;19921;-88
2023/06/19 08:49:18;;;;;;;;;;;19.30;78.70;;;18.46;100.00;62537.16;5016671;28;19927;-88
2023/06/19 08:51:47;;;;;;;;;;;19.30;78.80;;;;;;5032725;28;19951;-88
2023/06/19 08:54:15;;;;;;;;;;;19.20;78.90;;;-151.14;100.00;62537.16;5016458;28;19967;-90
2023/06/19 08:56:44;;;;;;;;;;;19.20;79.10;;;-151.14;100.00;62537.16;5033122;28;20111;-89
2023/06/19 08:59:13;;;;;;;;;;;19.20;79.10;;;-151.14;100.00;62537.16;5016543;28;19943;-89
2023/06/19 09:01:41;;;;;;;;;;;19.20;79.90;;;-151.14;100.00;62537.16;5015874;28;19921;-89
2023/06/19 09:04:10;;;;;;;;;;;19.20;79.10;;;-151.14;100.00;62537.16;5016243;28;19944;-88
2023/06/19 09:06:48;;;;;;;;;;;19.20;78.80;;;18.48;100.00;83787.84;5016331;28;20101;-88
2023/06/19 09:09:16;;;;;;;;;;;19.30;79.00;;;-151.14;100.00;62537.16;5032818;28;19928;-88
2023/06/19 09:11:45;;;;;;;;;;;19.30;79.10;;;-151.14;100.00;62537.16;5015785;28;20235;-89
2023/06/19 09:14:13;;;;;;;;;;;19.30;79.10;;;-151.14;100.00;62537.16;5015134;28;19921;-88
2023/06/19 09:16:42;;;;;;;;;;;19.30;78.90;;;18.08;100.00;62537.16;5016357;28;19921;-88
2023/06/19 09:19:10;;;;;;;;;;;19.30;78.80;;;-151.14;100.00;62537.16;5032781;28;19922;-89
2023/06/19 09:21:39;;;;;;;;;;;19.30;78.70;;;-151.14;100.00;62537.16;5015636;28;19921;-89
2023/06/19 09:24:09;;;;;;;;;;;19.30;78.70;;;-151.14;100.00;62537.16;5016005;28;19925;-89
2023/06/19 09:26:37;;;;;;;;;;;19.30;78.70;;;39.25;100.00;62537.16;5015637;28;19921;-89
2023/06/19 09:29:12;;;;;;;;;;;19.40;78.70;;;-151.14;100.00;62537.16;5032472;28;20111;-88
2023/06/19 09:31:41;;;;;;;;;;;19.40;78.50;;;18.67;100.00;62537.16;5015637;28;19921;-88
2023/06/19 09:34:09;;;;;;;;;;;19.40;78.40;;;-151.14;100.00;62537.16;5016039;28;19991;-89
2023/06/19 09:36:37;;;;;;;;;;;19.40;78.30;;;-151.14;100.00;62537.16;5016263;28;19925;-88
2023/06/19 09:39:06;;;;;;;;;;;19.40;78.30;;;-151.14;100.00;62537.16;4999494;28;19921;-88
2023/06/19 09:41:35;;;;;;;;;;;19.40;78.30;;;-151.14;100.00;62537.16;4998896;28;20119;-88
2023/06/19 09:44:03;;;;;;;;;;;19.40;78.30;;;-151.14;100.00;62537.16;4999228;28;19921;-87
2023/06/19 09:46:32;;;;;;;;;;;19.40;78.40;;;-151.14;100.00;62537.16;5015733;28;19921;-87
2023/06/19 09:49:03;;;;;;;;;;;19.40;78.40;;;18.59;100.00;62537.16;4995930;28;20120;-87
2023/06/19 09:51:32;;;;;;;;;;;19.40;78.10;;;-151.14;100.00;62537.16;4995252;28;20209;-87
2023/06/19 09:54:02;;;;;;;;;;;19.30;78.50;;;18.54;100.00;62537.16;4995824;28;19927;-87
2023/06/19 09:56:30;;;;;;;;;;;19.30;78.60;;;-151.14;100.00;62537.16;5012084;28;20223;-88
2023/06/19 09:59:00;;;;;;;;;;;19.30;78.80;;;-151.14;100.00;62537.16;4996037;28;20235;-87
2023/06/19 10:01:29;;;;;;;;;;;19.30;78.80;;;-151.14;100.00;62537.16;5011704;28;19921;-87
2023/06/19 10:04:07;;;;;;;;;;;19.30;78.80;;;-151.14;100.00;62537.16;4995882;28;20128;-87
2023/06/19 10:06:43;;;;;;;;;;;19.30;78.90;;;-151.14;100.00;62537.16;4995582;28;20217;-87
2023/06/19 10:09:11;;;;;;;;;;;19.30;79.00;;;-151.14;100.00;62537.16;4995820;28;19921;-87
2023/06/19 10:11:51;;;;;;;;;;;19.30;79.00;;;18.10;100.00;62537.16;4995228;28;20102;-87
2023/06/19 10:14:20;;;;;;;;;;;19.30;78.90;;;-151.14;100.00;62537.16;5011781;28;19921;-87
2023/06/19 10:16:48;;;;;;;;;;;19.30;78.80;;;20.72;100.00;62537.16;4995685;28;20227;-87
2023/06/19 10:19:17;;;;;;;;;;;19.30;78.70;;;-151.14;100.00;62537.16;4995823;28;20213;-87
2023/06/19 10:21:46;;;;;;;;;;;19.40;78.70;;;18.59;100.00;62537.16;4995137;28;19928;-87
2023/06/19 10:24:19;;;;;;;;;;;19.30;78.70;;;102.80;100.00;62537.16;4995764;28;19928;-87
2023/06/19 10:26:56;;;;;;;;;;;19.30;78.70;;;-151.14;100.00;62537.16;5012066;28;19921;-87
2023/06/19 10:29:27;;;;;;;;;;;19.40;78.60;;;18.08;100.00;62537.16;5011858;28;19921;-87
2023/06/19 10:31:56;;;;;;;;;;;19.40;78.70;;;18.62;100.00;106994.31;4994942;28;19921;-87
2023/06/19 10:34:34;;;;;;;;;;;19.40;78.50;;;-151.14;100.00;62537.16;4999452;28;19928;-87
2023/06/19 10:37:02;;;;;;;;;;;19.40;78.50;;;-151.14;100.00;62537.16;5015059;28;19921;-87
2023/06/19 10:39:31;;;;;;;;;;;19.40;78.60;;;39.25;100.00;62537.16;5013843;28;19921;-88
2023/06/19 10:41:59;;;;;;;;;;;19.40;78.40;;;-151.14;100.00;62537.16;5030767;28;19921;-87
2023/06/19 10:44:28;;;;;;;;;;;19.40;78.40;;;18.64;100.00;62537.16;5031129;28;20116;-88
2023/06/19 10:46:56;;;;;;;;;;;19.40;78.40;;;-151.14;100.00;62537.16;5031291;28;19921;-88
2023/06/19 10:49:24;;;;;;;;;;;19.40;78.40;;;-151.14;100.00;62537.16;5014821;28;19921;-88
2023/06/19 10:51:57;;;;;;;;;;;19.40;78.30;;;18.67;100.00;62537.16;5014211;28;19921;-88
2023/06/19 10:54:25;;;;;;;;;;;19.40;78.30;;;-151.14;100.00;62537.16;5014516;28;19921;-87
2023/06/19 10:56:54;;;;;;;;;;;19.40;78.30;;;-151.14;100.00;62537.16;5014739;28;20226;-87
2023/06/19 10:59:23;;;;;;;;;;;19.50;78.40;;;-151.14;100.00;62537.16;5031334;28;19921;-88
2023/06/19 11:01:52;;;;;;;;;;;19.40;78.30;;;-151.14;100.00;62537.16;5030582;28;20112;-88
2023/06/19 11:04:23;;;;;;;;;;;19.40;78.30;;;-151.14;100.00;62537.16;5014785;28;20121;-88
2023/06/19 11:06:51;;;;;;;;;;;19.50;78.30;;;-151.14;100.00;62537.16;5014523;28;19943;-87